createdAt,value
2023-04-15T00:00:40.472Z,6.150
2023-04-15T00:02:38.765Z,6.179
2023-04-15T00:03:39.119Z,6.186
2023-04-15T00:04:38.201Z,6.136
2023-04-15T00:05:38.559Z,6.094
2023-04-15T00:06:38.382Z,6.105
2023-04-15T00:07:37.761Z,6.086
2023-04-15T00:08:38.567Z,6.078
2023-04-15T00:09:38.187Z,6.066
2023-04-15T00:10:38.421Z,6.011
2023-04-15T00:11:38.298Z,5.966
2023-04-15T00:12:37.976Z,5.971
2023-04-15T00:13:38.041Z,5.983
2023-04-15T00:14:38.249Z,5.966
2023-04-15T00:15:38.054Z,5.946
2023-04-15T00:16:38.260Z,5.971
2023-04-15T00:17:37.980Z,5.998
2023-04-15T00:18:38.459Z,5.968
2023-04-15T00:19:37.959Z,5.983
2023-04-15T00:20:38.914Z,5.988
2023-04-15T00:21:38.776Z,5.981
2023-04-15T00:22:38.229Z,6
2023-04-15T00:23:37.784Z,5.987
2023-04-15T00:24:38.768Z,5.989
2023-04-15T00:25:38.649Z,5.895
2023-04-15T00:26:37.971Z,5.795
2023-04-15T00:27:37.629Z,5.715
2023-04-15T00:28:38.051Z,5.691
2023-04-15T00:29:37.398Z,5.731
2023-04-15T00:30:38.332Z,5.762
2023-04-15T00:31:38.436Z,5.742
2023-04-15T00:32:38.092Z,5.782
2023-04-15T00:33:37.800Z,5.777
2023-04-15T00:34:38.302Z,5.744
2023-04-15T00:35:38.473Z,5.716
2023-04-15T00:36:38.094Z,5.719
2023-04-15T00:37:37.910Z,5.710
2023-04-15T00:38:38.593Z,5.670
2023-04-15T00:39:38.267Z,5.607
2023-04-15T00:40:37.851Z,5.547
2023-04-15T00:41:38.310Z,5.541
2023-04-15T00:42:37.795Z,5.559
2023-04-15T00:43:38.192Z,5.622
2023-04-15T00:44:38.054Z,5.636
2023-04-15T00:45:37.888Z,5.598
2023-04-15T00:46:38.646Z,5.517
2023-04-15T00:47:38.239Z,5.467
2023-04-15T00:48:38.112Z,5.434
2023-04-15T00:49:37.746Z,5.416
2023-04-15T00:50:38.215Z,5.401
2023-04-15T00:51:37.843Z,5.396
2023-04-15T00:52:37.914Z,5.416
2023-04-15T00:53:38.479Z,5.405
2023-04-15T00:54:37.974Z,5.364
2023-04-15T00:55:38.833Z,5.326
2023-04-15T00:56:38.174Z,5.304
2023-04-15T00:57:37.734Z,5.286
2023-04-15T00:58:38.134Z,5.275
2023-04-15T00:59:37.802Z,5.288
2023-04-15T01:00:39.592Z,5.264
2023-04-15T01:01:37.984Z,5.215
2023-04-15T01:02:38.040Z,5.175
2023-04-15T01:03:38.134Z,5.156
2023-04-15T01:04:38.374Z,5.143
2023-04-15T01:05:38.569Z,5.123
2023-04-15T01:06:38.496Z,5.074
2023-04-15T01:07:38.417Z,5.053
2023-04-15T01:08:37.889Z,5.061
2023-04-15T01:09:38.466Z,5.045
2023-04-15T01:10:38.207Z,5.088
2023-04-15T01:11:38.237Z,5.168
2023-04-15T01:12:38.109Z,5.213
2023-04-15T01:13:37.530Z,5.246
2023-04-15T01:14:38.173Z,5.210
2023-04-15T01:15:38.456Z,5.131
2023-04-15T01:16:38.078Z,5.085
2023-04-15T01:17:37.944Z,5.039
2023-04-15T01:18:37.806Z,5.014
2023-04-15T01:19:38.877Z,5.010
2023-04-15T01:20:38.853Z,4.968
2023-04-15T01:21:38.557Z,4.948
2023-04-15T01:22:38.221Z,4.960
2023-04-15T01:23:37.766Z,4.983
2023-04-15T01:24:38.367Z,4.951
2023-04-15T01:25:38.436Z,4.949
2023-04-15T01:26:38.346Z,4.938
2023-04-15T01:27:37.795Z,4.928
2023-04-15T01:28:38.578Z,4.971
2023-04-15T01:29:38.194Z,4.960
2023-04-15T01:30:38.333Z,4.956
2023-04-15T01:31:38.178Z,4.971
2023-04-15T01:32:38.237Z,5.014
2023-04-15T01:33:38.181Z,5.043
2023-04-15T01:34:38.172Z,5.079
2023-04-15T01:35:38.158Z,5.106
2023-04-15T01:36:38.092Z,5.110
2023-04-15T01:37:38.025Z,5.166
2023-04-15T01:38:37.584Z,5.179
2023-04-15T01:39:38.127Z,5.176
2023-04-15T01:40:38.021Z,5.136
2023-04-15T01:41:37.766Z,5.168
2023-04-15T01:42:38.353Z,5.183
2023-04-15T01:43:52.503Z,5.198
2023-04-15T01:44:38.145Z,5.196
2023-04-15T01:45:37.671Z,5.176
2023-04-15T01:46:38.310Z,5.171
2023-04-15T01:47:38.058Z,5.184
2023-04-15T01:48:38.134Z,5.230
2023-04-15T01:49:37.916Z,5.280
2023-04-15T01:50:39.077Z,5.323
2023-04-15T01:51:38.275Z,5.333
2023-04-15T01:52:38.040Z,5.338
2023-04-15T01:53:37.501Z,5.336
2023-04-15T01:54:38.053Z,5.351
2023-04-15T01:55:37.898Z,5.366
2023-04-15T01:56:38.237Z,5.360
2023-04-15T01:57:37.478Z,5.374
2023-04-15T01:58:38.187Z,5.418
2023-04-15T01:59:45.624Z,5.441
2023-04-15T02:00:39.649Z,5.445
2023-04-15T02:02:00.289Z,5.461
2023-04-15T02:02:37.947Z,5.469
2023-04-15T02:03:37.929Z,5.478
2023-04-15T02:04:38.481Z,5.468
2023-04-15T02:05:38.413Z,5.466
2023-04-15T02:06:38.352Z,5.457
2023-04-15T02:07:37.820Z,5.455
2023-04-15T02:08:38.835Z,5.442
2023-04-15T02:09:38.620Z,5.440
2023-04-15T02:10:38.051Z,5.434
2023-04-15T02:11:37.443Z,5.423
2023-04-15T02:12:37.958Z,5.407
2023-04-15T02:13:38.692Z,5.389
2023-04-15T02:14:38.483Z,5.368
2023-04-15T02:15:38.038Z,5.354
2023-04-15T02:16:37.985Z,5.364
2023-04-15T02:17:37.949Z,5.374
2023-04-15T02:18:37.486Z,5.364
2023-04-15T02:19:37.742Z,5.358
2023-04-15T02:20:38.771Z,5.362
2023-04-15T02:21:38.651Z,5.354
2023-04-15T02:22:38.408Z,5.321
2023-04-15T02:23:38.061Z,5.281
2023-04-15T02:24:37.642Z,5.255
2023-04-15T02:25:38.565Z,5.260
2023-04-15T02:26:38.143Z,5.254
2023-04-15T02:27:37.650Z,5.228
2023-04-15T02:28:38.463Z,5.231
2023-04-15T02:29:38.024Z,5.193
2023-04-15T02:30:38.933Z,5.118
2023-04-15T02:31:39.096Z,5.101
2023-04-15T02:32:38.285Z,5.071
2023-04-15T02:33:38.269Z,5.079
2023-04-15T02:34:38.095Z,5.079
2023-04-15T02:36:09.510Z,5.068
2023-04-15T02:36:41.229Z,5.025
2023-04-15T02:37:37.815Z,5.016
2023-04-15T02:38:38.554Z,5.028
2023-04-15T02:39:38.280Z,5.016
2023-04-15T02:40:37.925Z,4.994
2023-04-15T02:41:38.495Z,4.965
2023-04-15T02:42:38.757Z,4.948
2023-04-15T02:43:38.690Z,4.931
2023-04-15T02:44:38.250Z,4.958
2023-04-15T02:45:37.917Z,4.960
2023-04-15T02:46:38.927Z,4.945
2023-04-15T02:47:38.949Z,4.933
2023-04-15T02:48:38.530Z,4.886
2023-04-15T02:49:38.326Z,4.841
2023-04-15T02:50:38.256Z,4.823
2023-04-15T02:51:38.323Z,4.773
2023-04-15T02:52:37.898Z,4.798
2023-04-15T02:53:38.675Z,4.776
2023-04-15T02:54:38.356Z,4.753
2023-04-15T02:55:38.276Z,4.751
2023-04-15T02:56:38.185Z,4.761
2023-04-15T02:57:38.582Z,4.708
2023-04-15T02:58:38.754Z,4.670
2023-04-15T02:59:38.558Z,4.626
2023-04-15T03:00:39.122Z,4.619
2023-04-15T03:01:38.137Z,4.598
2023-04-15T03:02:38.340Z,4.603
2023-04-15T03:03:38.510Z,4.631
2023-04-15T03:04:38.174Z,4.648
2023-04-15T03:05:37.677Z,4.658
2023-04-15T03:06:38.554Z,4.653
2023-04-15T03:07:37.760Z,4.673
2023-04-15T03:08:38.442Z,4.663
2023-04-15T03:09:38.210Z,4.586
2023-04-15T03:10:38.330Z,4.583
2023-04-15T03:11:37.687Z,4.578
2023-04-15T03:12:38.683Z,4.546
2023-04-15T03:13:38.508Z,4.541
2023-04-15T03:14:38.308Z,4.543
2023-04-15T03:15:38.302Z,4.541
2023-04-15T03:16:37.995Z,4.5
2023-04-15T03:17:37.791Z,4.440
2023-04-15T03:18:38.771Z,4.398
2023-04-15T03:19:38.578Z,4.373
2023-04-15T03:20:38.870Z,4.366
2023-04-15T03:21:38.481Z,4.364
2023-04-15T03:22:38.106Z,4.381
2023-04-15T03:23:37.984Z,4.401
2023-04-15T03:24:38.260Z,4.394
2023-04-15T03:25:38.559Z,4.400
2023-04-15T03:26:38.405Z,4.391
2023-04-15T03:27:38.253Z,4.403
2023-04-15T03:28:38.122Z,4.413
2023-04-15T03:29:37.619Z,4.371
2023-04-15T03:30:38.586Z,4.363
2023-04-15T03:31:38.340Z,4.342
2023-04-15T03:32:38.515Z,4.331
2023-04-15T03:33:38.416Z,4.315
2023-04-15T03:34:38.392Z,4.355
2023-04-15T03:35:38.491Z,4.348
2023-04-15T03:36:38.746Z,4.348
2023-04-15T03:37:38.430Z,4.364
2023-04-15T03:38:38.126Z,4.369
2023-04-15T03:39:38.101Z,4.369
2023-04-15T03:40:38.141Z,4.338
2023-04-15T03:41:37.385Z,4.263
2023-04-15T03:42:37.997Z,4.211
2023-04-15T03:43:37.781Z,4.176
2023-04-15T03:44:38.486Z,4.142
2023-04-15T03:45:38.808Z,4.136
2023-04-15T03:46:43.616Z,4.174
2023-04-15T03:48:43.267Z,4.192
2023-04-15T03:49:37.708Z,4.188
2023-04-15T03:50:38.264Z,4.155
2023-04-15T03:51:37.882Z,4.119
2023-04-15T03:52:38.348Z,4.102
2023-04-15T03:53:38.623Z,4.093
2023-04-15T03:54:39.158Z,4.098
2023-04-15T03:55:38.060Z,4.110
2023-04-15T03:56:38.117Z,4.126
2023-04-15T03:57:38.621Z,4.166
2023-04-15T03:58:38.993Z,4.144
2023-04-15T03:59:38.167Z,4.130
2023-04-15T04:00:38.830Z,4.110
2023-04-15T04:01:38.576Z,4.103
2023-04-15T04:02:39.082Z,4.079
2023-04-15T04:03:38.333Z,4.065
2023-04-15T04:04:38.633Z,4.054
2023-04-15T04:05:38.296Z,4.050
2023-04-15T04:06:37.882Z,4.054
2023-04-15T04:07:38.535Z,4.066
2023-04-15T04:08:38.541Z,4.030
2023-04-15T04:09:37.966Z,4.038
2023-04-15T04:10:38.820Z,4.038
2023-04-15T04:11:38.368Z,4.023
2023-04-15T04:12:37.988Z,4.046
2023-04-15T04:13:37.799Z,4.068
2023-04-15T04:14:38.432Z,4.071
2023-04-15T04:15:38.479Z,4.038
2023-04-15T04:16:38.915Z,4.023
2023-04-15T04:17:38.834Z,4.014
2023-04-15T04:18:38.607Z,3.996
2023-04-15T04:19:38.065Z,3.966
2023-04-15T04:20:38.098Z,3.960
2023-04-15T04:21:37.851Z,3.980
2023-04-15T04:22:38.490Z,3.988
2023-04-15T04:23:38.086Z,3.984
2023-04-15T04:25:00.459Z,3.960
2023-04-15T04:25:38.020Z,3.950
2023-04-15T04:26:37.794Z,3.973
2023-04-15T04:27:38.628Z,3.973
2023-04-15T04:28:38.640Z,3.963
2023-04-15T04:29:38.433Z,3.964
2023-04-15T04:30:38.734Z,3.961
2023-04-15T04:31:38.576Z,3.961
2023-04-15T04:32:46.475Z,3.924
2023-04-15T04:33:38.546Z,3.886
2023-04-15T04:34:38.456Z,3.923
2023-04-15T04:35:38.684Z,3.976
2023-04-15T04:36:38.465Z,4.005
2023-04-15T04:37:38.516Z,4.010
2023-04-15T04:38:39.071Z,4.026
2023-04-15T04:39:37.522Z,4.003
2023-04-15T04:40:38.367Z,4.014
2023-04-15T04:41:38.311Z,4.038
2023-04-15T04:42:39.824Z,4.028
2023-04-15T04:43:37.855Z,4.038
2023-04-15T04:44:38.753Z,4.050
2023-04-15T04:45:38.969Z,4.031
2023-04-15T04:46:39.147Z,4.030
2023-04-15T04:47:38.665Z,4.025
2023-04-15T04:48:57.550Z,4.045
2023-04-15T04:49:38.758Z,4.076
2023-04-15T04:50:38.917Z,4.093
2023-04-15T04:51:39.041Z,4.110
2023-04-15T04:52:37.843Z,4.123
2023-04-15T04:53:38.879Z,4.116
2023-04-15T04:54:38.981Z,4.113
2023-04-15T04:55:38.612Z,4.113
2023-04-15T04:56:57.808Z,4.111
2023-04-15T04:57:38.837Z,4.103
2023-04-15T04:58:38.490Z,4.126
2023-04-15T04:59:38.552Z,4.151
2023-04-15T05:00:39.839Z,4.159
2023-04-15T05:01:39.122Z,4.178
2023-04-15T05:02:38.507Z,4.210
2023-04-15T05:03:38.876Z,4.235
2023-04-15T05:04:38.718Z,4.243
2023-04-15T05:05:38.889Z,4.243
2023-04-15T05:06:38.781Z,4.264
2023-04-15T05:07:38.932Z,4.275
2023-04-15T05:08:40.424Z,4.278
2023-04-15T05:09:38.298Z,4.297
2023-04-15T05:10:38.344Z,4.304
2023-04-15T05:11:38.205Z,4.302
2023-04-15T05:12:38.166Z,4.309
2023-04-15T05:13:38.176Z,4.335
2023-04-15T05:14:38.349Z,4.345
2023-04-15T05:15:38.857Z,4.349
2023-04-15T05:16:39.362Z,4.375
2023-04-15T05:17:38.914Z,4.403
2023-04-15T05:18:39.123Z,4.422
2023-04-15T05:19:38.095Z,4.435
2023-04-15T05:20:38.737Z,4.428
2023-04-15T05:21:39.590Z,4.435
2023-04-15T05:22:39.141Z,4.457
2023-04-15T05:23:38.391Z,4.481
2023-04-15T05:24:38.872Z,4.514
2023-04-15T05:25:38.975Z,4.524
2023-04-15T05:26:38.463Z,4.536
2023-04-15T05:27:38.870Z,4.554
2023-04-15T05:28:39.237Z,4.570
2023-04-15T05:29:39.117Z,4.581
2023-04-15T05:30:39.643Z,4.573
2023-04-15T05:31:38.653Z,4.579
2023-04-15T05:32:38.914Z,4.616
2023-04-15T05:33:38.997Z,4.631
2023-04-15T05:34:37.897Z,4.650
2023-04-15T05:35:39.240Z,4.650
2023-04-15T05:36:38.171Z,4.655
2023-04-15T05:37:37.835Z,4.681
2023-04-15T05:38:39.007Z,4.695
2023-04-15T05:39:38.436Z,4.713
2023-04-15T05:40:38.712Z,4.730
2023-04-15T05:41:38.880Z,4.748
2023-04-15T05:42:39.048Z,4.760
2023-04-15T05:43:37.995Z,4.780
2023-04-15T05:44:38.244Z,4.796
2023-04-15T05:45:38.924Z,4.811
2023-04-15T05:46:38.988Z,4.831
2023-04-15T05:47:38.269Z,4.840
2023-04-15T05:48:38.357Z,4.856
2023-04-15T05:49:38.353Z,4.861
2023-04-15T05:50:38.931Z,4.880
2023-04-15T05:51:39.274Z,4.893
2023-04-15T05:52:38.518Z,4.911
2023-04-15T05:53:38.772Z,4.913
2023-04-15T05:54:39.047Z,4.931
2023-04-15T05:55:38.382Z,4.956
2023-04-15T05:56:39.169Z,4.951
2023-04-15T05:57:39.335Z,4.961
2023-04-15T05:58:39.106Z,4.974
2023-04-15T05:59:38.199Z,4.996
2023-04-15T06:00:39.547Z,5
2023-04-15T06:01:38.842Z,5.003
2023-04-15T06:02:39.306Z,5.025
2023-04-15T06:03:38.763Z,5.031
2023-04-15T06:04:39.189Z,5.043
2023-04-15T06:05:38.380Z,5.071
2023-04-15T06:06:38.600Z,5.111
2023-04-15T06:07:43.581Z,5.118
2023-04-15T06:08:39.031Z,5.143
2023-04-15T06:09:43.207Z,5.151
2023-04-15T06:10:38.193Z,5.156
2023-04-15T06:11:37.937Z,5.161
2023-04-15T06:12:38.969Z,5.179
2023-04-15T06:13:39.217Z,5.186
2023-04-15T06:14:38.370Z,5.204
2023-04-15T06:15:43.736Z,5.219
2023-04-15T06:16:39.152Z,5.231
2023-04-15T06:17:38.336Z,5.244
2023-04-15T06:18:38.717Z,5.295
2023-04-15T06:19:46.822Z,5.316
2023-04-15T06:20:39.333Z,5.346
2023-04-15T06:21:38.518Z,5.361
2023-04-15T06:22:38.894Z,5.386
2023-04-15T06:23:41.084Z,5.401
2023-04-15T06:24:38.326Z,5.418
2023-04-15T06:25:38.717Z,5.453
2023-04-15T06:26:38.767Z,5.476
2023-04-15T06:27:38.642Z,5.501
2023-04-15T06:28:38.763Z,5.519
2023-04-15T06:29:39.040Z,5.538
2023-04-15T06:30:39.609Z,5.578
2023-04-15T06:31:39.211Z,5.594
2023-04-15T06:32:38.548Z,5.598
2023-04-15T06:33:52.735Z,5.621
2023-04-15T06:34:38.269Z,5.601
2023-04-15T06:35:38.527Z,5.625
2023-04-15T06:36:38.647Z,5.655
2023-04-15T06:37:38.697Z,5.651
2023-04-15T06:38:39.074Z,5.655
2023-04-15T06:39:38.177Z,5.711
2023-04-15T06:40:38.645Z,5.724
2023-04-15T06:41:38.410Z,5.766
2023-04-15T06:42:38.491Z,5.756
2023-04-15T06:43:57.735Z,5.788
2023-04-15T06:44:38.628Z,5.800
2023-04-15T06:45:39.268Z,5.796
2023-04-15T06:46:38.668Z,5.784
2023-04-15T06:47:38.768Z,5.806
2023-04-15T06:48:39.352Z,5.805
2023-04-15T06:49:57.413Z,5.834
2023-04-15T06:50:38.665Z,5.852
2023-04-15T06:51:41.751Z,5.869
2023-04-15T06:52:38.853Z,5.904
2023-04-15T06:53:39.329Z,5.923
2023-04-15T06:54:38.363Z,5.964
2023-04-15T06:55:39.057Z,5.972
2023-04-15T06:56:37.631Z,5.981
2023-04-15T06:57:38.411Z,6.001
2023-04-15T06:58:38.290Z,6.019
2023-04-15T06:59:38.174Z,6.039
2023-04-15T07:00:39.636Z,6.064
2023-04-15T07:01:47.386Z,6.087
2023-04-15T07:02:39.793Z,6.118
2023-04-15T07:03:39.879Z,6.173
2023-04-15T07:04:39.585Z,6.201
2023-04-15T07:05:39.169Z,6.233
2023-04-15T07:06:38.425Z,6.255
2023-04-15T07:07:39.499Z,6.278
2023-04-15T07:08:38.949Z,6.288
2023-04-15T07:09:39.097Z,6.316
2023-04-15T07:10:40.132Z,6.329
2023-04-15T07:11:37.871Z,6.338
2023-04-15T07:12:39.208Z,6.335
2023-04-15T07:13:38.173Z,6.380
2023-04-15T07:14:38.912Z,6.401
2023-04-15T07:15:58.088Z,6.440
2023-04-15T07:16:38.246Z,6.473
2023-04-15T07:17:38.548Z,6.498
2023-04-15T07:18:38.475Z,6.519
2023-04-15T07:19:38.663Z,6.576
2023-04-15T07:20:39.255Z,6.581
2023-04-15T07:21:39.967Z,6.570
2023-04-15T07:22:38.221Z,6.574
2023-04-15T07:24:09.825Z,6.558
2023-04-15T07:24:42.973Z,6.573
2023-04-15T07:25:38.563Z,6.599
2023-04-15T07:26:39.072Z,6.636
2023-04-15T07:27:38.261Z,6.679
2023-04-15T07:28:38.606Z,6.730
2023-04-15T07:29:38.551Z,6.781
2023-04-15T07:30:39.728Z,6.829
2023-04-15T07:31:39.356Z,6.881
2023-04-15T07:32:38.496Z,6.926
2023-04-15T07:33:38.783Z,6.961
2023-04-15T07:34:38.860Z,6.994
2023-04-15T07:35:38.782Z,7.030
2023-04-15T07:36:38.615Z,7.061
2023-04-15T07:37:38.793Z,7.083
2023-04-15T07:38:38.997Z,7.088
2023-04-15T07:39:38.222Z,7.101
2023-04-15T07:40:38.279Z,7.114
2023-04-15T07:41:38.673Z,7.116
2023-04-15T07:42:41.131Z,7.123
2023-04-15T07:43:38.616Z,7.146
2023-04-15T07:44:38.963Z,7.178
2023-04-15T07:45:39.498Z,7.208
2023-04-15T07:46:39.131Z,7.239
2023-04-15T07:47:38.450Z,7.256
2023-04-15T07:48:39.383Z,7.280
2023-04-15T07:49:38.227Z,7.298
2023-04-15T07:50:38.936Z,7.321
2023-04-15T07:51:38.847Z,7.344
2023-04-15T07:52:39.191Z,7.373
2023-04-15T07:53:38.023Z,7.388
2023-04-15T07:54:38.163Z,7.426
2023-04-15T07:55:38.447Z,7.510
2023-04-15T07:56:38.301Z,7.513
2023-04-15T07:57:38.710Z,7.534
2023-04-15T07:58:39.007Z,7.541
2023-04-15T07:59:38.798Z,7.599
2023-04-15T08:00:39.504Z,7.643
2023-04-15T08:01:38.650Z,7.678
2023-04-15T08:02:40.486Z,7.715
2023-04-15T08:03:39.600Z,7.755
2023-04-15T08:04:39.342Z,7.803
2023-04-15T08:05:38.512Z,7.863
2023-04-15T08:06:38.183Z,7.895
2023-04-15T08:07:38.522Z,7.886
2023-04-15T08:08:39.033Z,7.864
2023-04-15T08:09:38.556Z,7.901
2023-04-15T08:10:39.180Z,7.989
2023-04-15T08:11:38.183Z,8.051
2023-04-15T08:12:38.112Z,8.083
2023-04-15T08:13:38.333Z,8.076
2023-04-15T08:14:38.309Z,8.053
2023-04-15T08:15:38.969Z,8.078
2023-04-15T08:16:38.546Z,8.130
2023-04-15T08:17:38.585Z,8.170
2023-04-15T08:18:38.768Z,8.180
2023-04-15T08:19:38.535Z,8.211
2023-04-15T08:20:38.507Z,8.222
2023-04-15T08:21:38.303Z,8.225
2023-04-15T08:22:38.744Z,8.255
2023-04-15T08:23:39.171Z,8.265
2023-04-15T08:24:38.154Z,8.310
2023-04-15T08:25:38.265Z,8.371
2023-04-15T08:26:38.420Z,8.404
2023-04-15T08:27:38.708Z,8.515
2023-04-15T08:28:39.273Z,8.707
2023-04-15T08:29:38.633Z,8.708
2023-04-15T08:30:39.771Z,8.694
2023-04-15T08:31:39.016Z,8.723
2023-04-15T08:32:38.867Z,8.755
2023-04-15T08:33:39.543Z,8.721
2023-04-15T08:34:43.231Z,8.762
2023-04-15T08:35:38.466Z,8.807
2023-04-15T08:36:38.719Z,8.811
2023-04-15T08:37:39.245Z,8.852
2023-04-15T08:38:38.572Z,8.914
2023-04-15T08:39:39.139Z,8.933
2023-04-15T08:40:38.964Z,8.965
2023-04-15T08:41:39.101Z,9.013
2023-04-15T08:42:38.196Z,9.050
2023-04-15T08:43:38.450Z,9.071
2023-04-15T08:44:38.104Z,9.050
2023-04-15T08:45:39.005Z,9.033
2023-04-15T08:46:38.128Z,9.005
2023-04-15T08:47:39.031Z,9.015
2023-04-15T08:48:52.538Z,9.083
2023-04-15T08:49:38.841Z,9.140
2023-04-15T08:50:52.735Z,9.173
2023-04-15T08:51:39.887Z,9.208
2023-04-15T08:52:38.926Z,9.241
2023-04-15T08:53:39.301Z,9.251
2023-04-15T08:54:38.196Z,9.289
2023-04-15T08:55:39.042Z,9.346
2023-04-15T08:56:38.408Z,9.403
2023-04-15T08:57:38.387Z,9.418
2023-04-15T08:58:39.032Z,9.460
2023-04-15T08:59:38.412Z,9.548
2023-04-15T09:00:53.746Z,9.563
2023-04-15T09:01:39.497Z,9.611
2023-04-15T09:02:39.285Z,9.701
2023-04-15T09:03:38.516Z,9.718
2023-04-15T09:04:57.676Z,9.720
2023-04-15T09:05:38.787Z,9.760
2023-04-15T09:06:39.239Z,9.803
2023-04-15T09:07:38.393Z,9.813
2023-04-15T09:08:38.280Z,9.851
2023-04-15T09:09:38.544Z,9.864
2023-04-15T09:10:38.958Z,9.885
2023-04-15T09:11:39.159Z,9.896
2023-04-15T09:12:38.139Z,9.914
2023-04-15T09:13:38.282Z,9.935
2023-04-15T09:14:38.305Z,9.951
2023-04-15T09:15:38.852Z,9.933
2023-04-15T09:16:39.456Z,9.928
2023-04-15T09:17:38.802Z,9.933
2023-04-15T09:18:39.113Z,9.923
2023-04-15T09:19:38.203Z,9.931
2023-04-15T09:20:38.993Z,9.920
2023-04-15T09:21:38.355Z,9.925
2023-04-15T09:22:38.211Z,9.931
2023-04-15T09:23:38.229Z,9.949
2023-04-15T09:24:38.600Z,9.979
2023-04-15T09:25:38.652Z,9.984
2023-04-15T09:26:38.407Z,9.991
2023-04-15T09:27:38.634Z,10.02
2023-04-15T09:28:38.766Z,10.05
2023-04-15T09:29:38.766Z,10.08
2023-04-15T09:30:39.226Z,10.15
2023-04-15T09:31:38.481Z,10.19
2023-04-15T09:32:38.705Z,10.21
2023-04-15T09:33:39.089Z,10.23
2023-04-15T09:34:38.367Z,10.22
2023-04-15T09:35:38.424Z,10.21
2023-04-15T09:36:39.092Z,10.24
2023-04-15T09:37:47.040Z,10.26
2023-04-15T09:38:38.384Z,10.28
2023-04-15T09:39:38.927Z,10.33
2023-04-15T09:40:38.828Z,10.37
2023-04-15T09:41:38.850Z,10.39
2023-04-15T09:42:38.924Z,10.43
2023-04-15T09:43:38.750Z,10.47
2023-04-15T09:44:39.157Z,10.51
2023-04-15T09:45:41.892Z,10.52
2023-04-15T09:46:38.960Z,10.53
2023-04-15T09:47:38.906Z,10.53
2023-04-15T09:48:38.462Z,10.56
2023-04-15T09:49:38.566Z,10.59
2023-04-15T09:50:39.125Z,10.60
2023-04-15T09:51:38.118Z,10.65
2023-04-15T09:52:38.043Z,10.69
2023-04-15T09:53:38.615Z,10.71
2023-04-15T09:54:38.833Z,10.78
2023-04-15T09:55:38.814Z,10.88
2023-04-15T09:56:38.717Z,10.93
2023-04-15T09:57:38.822Z,10.96
2023-04-15T09:58:38.931Z,10.96
2023-04-15T09:59:39.194Z,10.97
2023-04-15T10:00:39.963Z,10.99
2023-04-15T10:01:39.120Z,10.99
2023-04-15T10:02:38.720Z,11.03
2023-04-15T10:03:39.712Z,11.03
2023-04-15T10:04:39.226Z,11.07
2023-04-15T10:05:38.762Z,11.10
2023-04-15T10:06:39.173Z,11.10
2023-04-15T10:07:38.785Z,11.14
2023-04-15T10:08:39.208Z,11.18
2023-04-15T10:09:38.301Z,11.18
2023-04-15T10:10:39.522Z,11.18
2023-04-15T10:11:38.570Z,11.18
2023-04-15T10:12:38.999Z,11.23
2023-04-15T10:13:38.477Z,11.27
2023-04-15T10:14:39.149Z,11.29
2023-04-15T10:15:38.821Z,11.31
2023-04-15T10:16:39.607Z,11.31
2023-04-15T10:17:38.886Z,11.34
2023-04-15T10:18:39.002Z,11.34
2023-04-15T10:19:38.154Z,11.32
2023-04-15T10:20:38.897Z,11.34
2023-04-15T10:21:38.741Z,11.36
2023-04-15T10:22:38.552Z,11.39
2023-04-15T10:23:39.187Z,11.43
2023-04-15T10:24:38.357Z,11.43
2023-04-15T10:25:38.740Z,11.45
2023-04-15T10:26:39.118Z,11.48
2023-04-15T10:27:38.376Z,11.49
2023-04-15T10:28:38.604Z,11.53
2023-04-15T10:29:38.949Z,11.62
2023-04-15T10:30:39.374Z,11.65
2023-04-15T10:31:38.712Z,11.65
2023-04-15T10:32:38.891Z,11.64
2023-04-15T10:33:38.961Z,11.68
2023-04-15T10:34:39.115Z,11.70
2023-04-15T10:35:38.424Z,11.74
2023-04-15T10:36:38.564Z,11.81
2023-04-15T10:37:38.517Z,11.80
2023-04-15T10:38:38.512Z,11.82
2023-04-15T10:39:38.468Z,11.84
2023-04-15T10:40:38.835Z,11.86
2023-04-15T10:41:38.803Z,11.86
2023-04-15T10:42:39.014Z,11.83
2023-04-15T10:43:38.405Z,11.82
2023-04-15T10:44:38.565Z,11.81
2023-04-15T10:45:38.767Z,11.82
2023-04-15T10:46:39.464Z,11.82
2023-04-15T10:47:38.765Z,11.79
2023-04-15T10:48:38.967Z,11.78
2023-04-15T10:49:38.921Z,11.77
2023-04-15T10:50:39.165Z,11.79
2023-04-15T10:51:38.622Z,11.81
2023-04-15T10:52:38.609Z,11.84
2023-04-15T10:53:38.410Z,11.93
2023-04-15T10:54:38.278Z,11.94
2023-04-15T10:55:38.980Z,11.94
2023-04-15T10:56:38.565Z,11.94
2023-04-15T10:57:43.827Z,11.96
2023-04-15T10:58:38.699Z,11.98
2023-04-15T10:59:38.934Z,11.98
2023-04-15T11:00:40.595Z,11.95
2023-04-15T11:01:38.889Z,11.94
2023-04-15T11:02:39.539Z,11.93
2023-04-15T11:03:39.085Z,11.93
2023-04-15T11:04:40.953Z,11.97
2023-04-15T11:05:39.424Z,11.99
2023-04-15T11:06:38.349Z,12.03
2023-04-15T11:07:38.566Z,12.04
2023-04-15T11:08:38.587Z,12.06
2023-04-15T11:09:38.654Z,12.05
2023-04-15T11:10:39.131Z,12.05
2023-04-15T11:11:38.600Z,12.05
2023-04-15T11:12:38.776Z,12.07
2023-04-15T11:13:39.110Z,12.06
2023-04-15T11:14:39.303Z,12.05
2023-04-15T11:15:38.972Z,12.11
2023-04-15T11:16:38.227Z,12.10
2023-04-15T11:17:38.616Z,12.14
2023-04-15T11:18:39.214Z,12.17
2023-04-15T11:19:39.281Z,12.14
2023-04-15T11:20:38.755Z,12.14
2023-04-15T11:21:38.678Z,12.15
2023-04-15T11:22:38.768Z,12.20
2023-04-15T11:23:38.630Z,12.21
2023-04-15T11:24:39.360Z,12.19
2023-04-15T11:25:38.298Z,12.19
2023-04-15T11:26:38.486Z,12.22
2023-04-15T11:27:38.511Z,12.22
2023-04-15T11:28:39.225Z,12.23
2023-04-15T11:29:38.451Z,12.25
2023-04-15T11:30:38.810Z,12.31
2023-04-15T11:31:38.801Z,12.36
2023-04-15T11:32:38.968Z,12.41
2023-04-15T11:34:06.351Z,12.46
2023-04-15T11:34:41.070Z,12.50
2023-04-15T11:35:38.926Z,12.48
2023-04-15T11:36:38.875Z,12.47
2023-04-15T11:37:38.965Z,12.50
2023-04-15T11:38:39.350Z,12.53
2023-04-15T11:39:38.906Z,12.53
2023-04-15T11:40:38.936Z,12.59
2023-04-15T11:41:39.622Z,12.67
2023-04-15T11:42:49.079Z,12.76
2023-04-15T11:43:39.114Z,12.85
2023-04-15T11:44:38.951Z,12.94
2023-04-15T11:45:39.983Z,13.05
2023-04-15T11:46:39.234Z,13.10
2023-04-15T11:47:38.375Z,13.22
2023-04-15T11:48:38.292Z,13.27
2023-04-15T11:49:38.522Z,13.24
2023-04-15T11:50:39.173Z,13.23
2023-04-15T11:51:38.464Z,13.22
2023-04-15T11:52:38.793Z,13.24
2023-04-15T11:53:38.985Z,13.32
2023-04-15T11:54:38.983Z,13.43
2023-04-15T11:55:38.513Z,13.41
2023-04-15T11:56:38.432Z,13.43
2023-04-15T11:57:38.732Z,13.35
2023-04-15T11:58:39.114Z,13.34
2023-04-15T11:59:47.732Z,13.40
2023-04-15T12:00:39.706Z,13.47
2023-04-15T12:01:38.877Z,13.39
2023-04-15T12:02:38.988Z,13.34
2023-04-15T12:03:39.367Z,13.44
2023-04-15T12:04:41.092Z,13.60
2023-04-15T12:05:39.294Z,13.62
2023-04-15T12:06:38.976Z,13.57
2023-04-15T12:07:38.297Z,13.55
2023-04-15T12:08:38.175Z,13.55
2023-04-15T12:09:38.853Z,13.62
2023-04-15T12:10:39.028Z,13.48
2023-04-15T12:11:38.530Z,13.42
2023-04-15T12:12:38.638Z,13.58
2023-04-15T12:13:38.579Z,13.50
2023-04-15T12:14:38.761Z,13.53
2023-04-15T12:15:38.836Z,13.55
2023-04-15T12:16:48.823Z,13.56
2023-04-15T12:17:51.520Z,13.54
2023-04-15T12:18:38.869Z,13.51
2023-04-15T12:19:39.213Z,13.44
2023-04-15T12:20:38.882Z,13.39
2023-04-15T12:21:38.695Z,13.38
2023-04-15T12:22:38.412Z,13.28
2023-04-15T12:23:37.860Z,13.22
2023-04-15T12:24:38.766Z,13.17
2023-04-15T12:25:38.730Z,13.21
2023-04-15T12:26:37.998Z,13.25
2023-04-15T12:27:37.835Z,13.25
2023-04-15T12:28:38.754Z,13.28
2023-04-15T12:29:38.613Z,13.32
2023-04-15T12:30:38.806Z,13.35
2023-04-15T12:31:38.714Z,13.39
2023-04-15T12:32:38.455Z,13.37
2023-04-15T12:33:38.050Z,13.31
2023-04-15T12:34:37.814Z,13.32
2023-04-15T12:35:39.073Z,13.38
2023-04-15T12:36:38.474Z,13.36
2023-04-15T12:37:38.564Z,13.39
2023-04-15T12:38:38.794Z,13.41
2023-04-15T12:39:38.765Z,13.40
2023-04-15T12:40:38.842Z,13.35
2023-04-15T12:41:38.593Z,13.32
2023-04-15T12:42:39.039Z,13.39
2023-04-15T12:43:38.336Z,13.38
2023-04-15T12:44:38.547Z,13.40
2023-04-15T12:45:38.234Z,13.39
2023-04-15T12:46:38.556Z,13.38
2023-04-15T12:47:38.224Z,13.36
2023-04-15T12:48:38.080Z,13.33
2023-04-15T12:49:38.028Z,13.30
2023-04-15T12:50:38.059Z,13.29
2023-04-15T12:51:38.243Z,13.33
2023-04-15T12:52:38.566Z,13.34
2023-04-15T12:53:38.319Z,13.34
2023-04-15T12:54:38.315Z,13.29
2023-04-15T12:55:38.695Z,13.25